Time;durP1;ratioP1;P1;durP2;ratioP2;P2;SDS_P1;SDS_P2;PMS_P1;PMS_P2;Temp;Humidity;BMP_temperature;BMP_pressure;BME280_temperature;BME280_humidity;BME280_pressure;Samples;Min_cycle;Max_cycle;Signal;HPM_P1;HPM_P2
2022/07/31 04:02:09;;;;;;;8.43;7.80;;;17.80;99.90;;;;;;5155210;23;20539;-67
2022/07/31 04:04:36;;;;;;;8.00;7.50;;;17.90;99.90;;;;;;4932263;29;20861;-69
2022/07/31 04:07:04;;;;;;;10.13;8.17;;;17.90;99.90;;;;;;4932034;29;20503;-69
2022/07/31 04:09:30;;;;;;;7.70;7.10;;;17.90;99.90;;;;;;4934236;29;20961;-67
2022/07/31 04:11:57;;;;;;;8.03;7.53;;;17.90;99.90;;;;;;4933338;29;20492;-67
2022/07/31 04:14:24;;;;;;;9.20;8.60;;;17.90;99.90;;;;;;4930241;29;20474;-67
2022/07/31 04:16:51;;;;;;;8.30;7.80;;;17.90;99.90;;;;;;4929711;29;20480;-67
2022/07/31 04:19:19;;;;;;;9.30;7.33;;;18.00;99.90;;;;;;4934412;29;20464;-68
2022/07/31 04:21:45;;;;;;;8.10;7.57;;;18.00;99.90;;;;;;4932442;29;20526;-67
2022/07/31 04:24:15;;;;;;;7.87;7.27;;;18.00;99.90;;;;;;4932538;29;20488;-68
2022/07/31 04:26:43;;;;;;;7.77;6.97;;;18.00;99.90;;;;;;4927793;29;20563;-67
2022/07/31 04:29:10;;;;;;;8.40;7.40;;;18.00;99.90;;;;;;4933821;29;20468;-67
2022/07/31 04:31:36;;;;;;;7.20;6.80;;;18.10;99.90;;;;;;4932396;29;20519;-67
2022/07/31 04:34:03;;;;;;;8.07;7.30;;;18.10;99.90;;;;;;4928108;29;20972;-67
2022/07/31 04:36:32;;;;;;;9.03;8.20;;;18.10;99.90;;;;;;4931847;29;20492;-67
2022/07/31 04:38:59;;;;;;;8.00;7.50;;;18.00;99.90;;;;;;4933807;29;20468;-67
2022/07/31 04:41:25;;;;;;;9.13;8.43;;;18.00;99.90;;;;;;4932122;29;20499;-67
2022/07/31 04:43:52;;;;;;;8.10;7.60;;;18.00;99.90;;;;;;4931540;29;20580;-67
2022/07/31 04:46:20;;;;;;;8.07;7.47;;;18.10;99.90;;;;;;4931995;29;20472;-67
2022/07/31 04:48:46;;;;;;;9.20;8.37;;;18.10;99.90;;;;;;4933719;29;20468;-67
2022/07/31 04:51:17;;;;;;;8.00;7.60;;;18.10;99.90;;;;;;4932287;29;20547;-67
2022/07/31 04:53:45;;;;;;;8.13;7.53;;;18.10;99.90;;;;;;4927344;29;20555;-68
2022/07/31 04:58:57;;;;;;;11.63;8.57;;;18.10;99.90;;;;;;4928003;29;20559;-67
2022/07/31 05:01:24;;;;;;;8.60;7.70;;;18.10;99.90;;;;;;4931373;29;20908;-70
2022/07/31 05:03:51;;;;;;;13.17;9.23;;;18.10;99.90;;;;;;4932445;29;20551;-68
2022/07/31 05:06:17;;;;;;;8.53;7.83;;;18.10;99.90;;;;;;4929174;29;20912;-68
2022/07/31 05:08:45;;;;;;;8.17;7.67;;;18.10;99.90;;;;;;4933121;29;20468;-68
2022/07/31 05:11:24;;;;;;;7.87;7.40;;;18.10;99.90;;;;;;4932055;29;20553;-68
2022/07/31 05:13:52;;;;;;;8.73;7.93;;;18.10;99.90;;;;;;4927828;29;20476;-67
2022/07/31 05:16:20;;;;;;;8.97;8.30;;;18.10;99.90;;;;;;4923563;29;20480;-68
2022/07/31 05:18:47;;;;;;;8.70;8.10;;;18.20;99.90;;;;;;4933045;29;20506;-68
2022/07/31 05:21:15;;;;;;;8.97;8.20;;;18.20;99.90;;;;;;4931445;29;20492;-68
2022/07/31 05:23:43;;;;;;;8.53;7.93;;;18.20;99.90;;;;;;4926311;29;20475;-68
2022/07/31 05:26:12;;;;;;;9.00;8.37;;;18.20;99.90;;;;;;4932136;29;20495;-68
2022/07/31 05:28:39;;;;;;;9.13;8.53;;;18.30;99.90;;;;;;4933076;29;20988;-68
2022/07/31 05:31:07;;;;;;;9.10;8.50;;;18.30;99.90;;;;;;4930808;29;21008;-68
2022/07/31 05:33:35;;;;;;;9.00;8.20;;;18.40;99.90;;;;;;4931875;29;20473;-68
2022/07/31 05:36:01;;;;;;;9.67;8.60;;;18.40;99.90;;;;;;4931884;29;20531;-68
2022/07/31 05:38:28;;;;;;;8.20;7.80;;;18.40;99.90;;;;;;4925101;29;20464;-68
2022/07/31 05:40:55;;;;;;;9.47;8.70;;;18.50;99.90;;;;;;4935139;29;20499;-68
2022/07/31 05:43:23;;;;;;;10.00;8.50;;;18.60;99.90;;;;;;4935564;29;20817;-67
2022/07/31 05:45:50;;;;;;;9.10;8.50;;;18.70;99.90;;;;;;4936380;29;20539;-67
2022/07/31 05:48:17;;;;;;;9.40;8.70;;;18.80;99.90;;;;;;4937022;29;20473;-67
2022/07/31 05:50:45;;;;;;;8.20;7.60;;;18.80;99.90;;;;;;4936465;29;20492;-67
2022/07/31 05:53:14;;;;;;;11.23;9.10;;;18.90;99.90;;;;;;4934658;29;20547;-67
2022/07/31 05:55:41;;;;;;;8.43;7.93;;;18.90;99.90;;;;;;4936227;29;20461;-68
2022/07/31 05:58:08;;;;;;;8.50;7.70;;;19.00;99.90;;;;;;4936908;29;20558;-67
2022/07/31 06:00:37;;;;;;;8.23;7.67;;;19.10;99.90;;;;;;4933094;29;20959;-67
2022/07/31 06:03:04;;;;;;;9.10;8.33;;;19.20;99.90;;;;;;4935507;29;20477;-68
2022/07/31 06:05:32;;;;;;;8.67;8.03;;;19.20;99.90;;;;;;4927871;29;20596;-68
2022/07/31 06:08:00;;;;;;;9.33;8.63;;;19.30;99.90;;;;;;4935774;29;20464;-68
2022/07/31 06:10:27;;;;;;;9.87;9.00;;;19.30;99.90;;;;;;4930678;29;20477;-68
2022/07/31 06:12:54;;;;;;;9.03;8.33;;;19.40;99.90;;;;;;4932740;29;20508;-68
2022/07/31 06:15:21;;;;;;;8.83;7.93;;;19.40;99.90;;;;;;4933135;29;20469;-68
2022/07/31 06:17:50;;;;;;;9.20;8.57;;;19.50;99.90;;;;;;4931074;29;20527;-69
2022/07/31 06:20:16;;;;;;;8.97;8.37;;;19.50;99.90;;;;;;4928280;29;20572;-67
2022/07/31 06:22:43;;;;;;;8.50;7.80;;;19.40;99.90;;;;;;4934418;29;20470;-68
2022/07/31 06:25:11;;;;;;;8.20;7.60;;;19.50;99.90;;;;;;4934723;29;20497;-68
2022/07/31 06:27:38;;;;;;;9.23;8.33;;;19.60;99.90;;;;;;4934260;29;20478;-68
2022/07/31 06:30:07;;;;;;;8.87;8.27;;;19.70;99.90;;;;;;4933262;29;20469;-68
2022/07/31 06:32:34;;;;;;;9.10;8.40;;;19.70;99.90;;;;;;4932871;29;20567;-67
2022/07/31 06:35:02;;;;;;;9.13;8.13;;;19.80;99.90;;;;;;4935562;29;20459;-68
2022/07/31 06:37:29;;;;;;;9.53;8.63;;;19.90;99.90;;;;;;4932666;29;20473;-68
2022/07/31 06:39:56;;;;;;;11.27;10.47;;;19.90;99.90;;;;;;4934485;29;20462;-68
2022/07/31 06:42:24;;;;;;;8.93;8.13;;;20.00;99.90;;;;;;4932009;29;20493;-68
2022/07/31 06:44:51;;;;;;;22.33;20.73;;;20.00;99.90;;;;;;4933272;29;20967;-69
2022/07/31 06:47:20;;;;;;;13.17;12.37;;;20.00;99.90;;;;;;4934337;29;20528;-68
2022/07/31 06:49:46;;;;;;;12.87;12.03;;;20.00;99.90;;;;;;4934154;29;20927;-69
2022/07/31 06:52:14;;;;;;;9.40;8.57;;;20.10;99.90;;;;;;4932280;29;20498;-68
2022/07/31 06:54:41;;;;;;;10.77;8.93;;;20.20;99.90;;;;;;4930581;29;20557;-68
2022/07/31 06:57:08;;;;;;;9.37;8.50;;;20.20;99.90;;;;;;4934684;29;20494;-67
2022/07/31 06:59:35;;;;;;;8.40;7.70;;;20.20;99.90;;;;;;4927648;29;20528;-69
2022/07/31 07:02:01;;;;;;;9.80;7.50;;;20.20;99.90;;;;;;4934875;29;20494;-69
2022/07/31 07:04:28;;;;;;;7.77;7.27;;;20.30;99.90;;;;;;4927520;29;20470;-69
2022/07/31 07:06:55;;;;;;;9.20;8.50;;;20.30;99.90;;;;;;4930506;29;21031;-68
2022/07/31 07:09:23;;;;;;;8.07;7.43;;;20.40;99.90;;;;;;4928726;29;20597;-68
2022/07/31 07:11:50;;;;;;;8.90;8.20;;;20.40;99.90;;;;;;4930402;29;20494;-69
2022/07/31 07:14:16;;;;;;;7.53;7.13;;;20.40;99.90;;;;;;4933306;29;20529;-68
2022/07/31 07:16:43;;;;;;;8.17;7.60;;;20.50;99.90;;;;;;4931614;29;20886;-68
2022/07/31 07:19:10;;;;;;;7.73;7.33;;;20.40;99.90;;;;;;4929117;29;22443;-69
2022/07/31 07:21:36;;;;;;;10.20;8.33;;;20.50;99.90;;;;;;4932410;29;20500;-68
2022/07/31 07:24:04;;;;;;;7.83;7.33;;;20.50;99.90;;;;;;4932248;29;20554;-67
2022/07/31 07:26:32;;;;;;;7.77;7.17;;;20.50;99.90;;;;;;4930223;29;20491;-67
2022/07/31 07:29:00;;;;;;;6.53;6.13;;;20.60;99.90;;;;;;4933654;29;20472;-69
2022/07/31 07:31:27;;;;;;;7.87;7.43;;;20.60;99.90;;;;;;4932385;29;20498;-68
2022/07/31 07:33:54;;;;;;;6.70;6.30;;;20.60;99.90;;;;;;4931125;29;20855;-68
2022/07/31 07:36:21;;;;;;;7.50;6.77;;;20.70;99.90;;;;;;4931603;29;20502;-69
2022/07/31 07:38:48;;;;;;;8.37;7.53;;;20.70;99.90;;;;;;4931771;29;20527;-69
2022/07/31 07:41:15;;;;;;;6.77;6.40;;;20.80;99.90;;;;;;4932908;29;20491;-67
2022/07/31 07:43:43;;;;;;;7.53;6.90;;;20.90;99.90;;;;;;4932700;29;20488;-69
2022/07/31 07:46:09;;;;;;;6.93;6.53;;;21.00;99.90;;;;;;4931140;29;20487;-68
2022/07/31 07:48:36;;;;;;;7.30;6.80;;;21.10;99.90;;;;;;4932523;29;20479;-68
2022/07/31 07:51:03;;;;;;;6.70;6.40;;;21.10;99.90;;;;;;4932386;29;20595;-68
2022/07/31 07:53:30;;;;;;;6.57;6.17;;;21.10;99.90;;;;;;4931334;29;20471;-68
2022/07/31 07:55:57;;;;;;;10.67;7.03;;;21.20;99.90;;;;;;4932116;29;20478;-67
2022/07/31 07:58:24;;;;;;;6.60;6.30;;;21.30;99.90;;;;;;4932943;29;21398;-68
2022/07/31 08:00:52;;;;;;;4.67;4.47;;;21.40;99.90;;;;;;4932653;29;20503;-69
2022/07/31 08:03:19;;;;;;;5.53;5.10;;;21.50;99.90;;;;;;4931080;29;20519;-69
2022/07/31 08:05:45;;;;;;;5.37;5.00;;;21.70;99.90;;;;;;4925517;29;20491;-68
2022/07/31 08:08:12;;;;;;;4.90;4.60;;;21.80;99.90;;;;;;4931818;29;20995;-69
2022/07/31 08:10:39;;;;;;;4.47;4.20;;;22.00;99.90;;;;;;4929620;29;20519;-69
2022/07/31 08:13:06;;;;;;;4.40;4.20;;;22.10;99.90;;;;;;4929239;29;20493;-69
2022/07/31 08:15:33;;;;;;;4.90;4.60;;;22.20;99.90;;;;;;4930176;28;20485;-69
2022/07/31 08:18:01;;;;;;;4.10;3.90;;;22.40;99.90;;;;;;4932118;29;20478;-67
2022/07/31 08:20:28;;;;;;;5.03;4.53;;;22.60;99.90;;;;;;4931759;29;20474;-69
2022/07/31 08:22:54;;;;;;;4.83;4.53;;;22.70;99.90;;;;;;4928669;29;20532;-69
2022/07/31 08:25:21;;;;;;;5.17;4.90;;;22.80;99.90;;;;;;4931897;29;20470;-68
2022/07/31 08:27:49;;;;;;;4.80;4.50;;;22.90;99.90;;;;;;4932389;29;20561;-68
2022/07/31 08:30:16;;;;;;;3.80;3.70;;;23.00;99.90;;;;;;4929695;29;20533;-68
2022/07/31 08:32:43;;;;;;;3.57;3.47;;;23.10;99.90;;;;;;4930208;29;20793;-68
2022/07/31 08:35:11;;;;;;;3.40;3.30;;;23.20;99.90;;;;;;4932752;29;20549;-68
2022/07/31 08:37:40;;;;;;;4.20;3.97;;;23.30;99.90;;;;;;4932977;29;20506;-69
2022/07/31 08:40:07;;;;;;;3.57;3.47;;;23.40;99.90;;;;;;4929030;29;20474;-68
2022/07/31 08:42:35;;;;;;;3.50;3.40;;;23.50;99.90;;;;;;4932099;29;20502;-68
2022/07/31 08:45:02;;;;;;;3.23;3.13;;;23.60;99.90;;;;;;4931235;29;20562;-69
2022/07/31 08:47:31;;;;;;;5.23;3.20;;;23.70;99.90;;;;;;4932899;29;20521;-69
2022/07/31 08:49:59;;;;;;;3.17;3.07;;;23.80;99.90;;;;;;4930025;29;20900;-68
2022/07/31 08:52:31;;;;;;;3.70;3.43;;;24.00;99.90;;;;;;4933214;29;21030;-69
2022/07/31 08:54:59;;;;;;;3.30;3.30;;;24.00;99.90;;;;;;4930157;29;20557;-69
2022/07/31 08:57:26;;;;;;;3.27;3.27;;;23.90;99.90;;;;;;4933347;29;20971;-69
2022/07/31 08:59:54;;;;;;;3.43;3.23;;;23.90;99.90;;;;;;4929603;29;20509;-68
2022/07/31 09:02:21;;;;;;;2.97;2.77;;;23.90;99.90;;;;;;4929920;29;20502;-69
2022/07/31 09:04:48;;;;;;;3.03;2.93;;;24.10;99.90;;;;;;4926199;29;20470;-68
2022/07/31 09:07:15;;;;;;;2.70;2.50;;;24.30;99.90;;;;;;4929133;29;20478;-68
2022/07/31 09:09:44;;;;;;;2.53;2.43;;;24.60;99.90;;;;;;4929885;29;21374;-70
2022/07/31 09:12:11;;;;;;;3.30;3.13;;;24.70;99.90;;;;;;4933216;29;20481;-70
2022/07/31 09:14:38;;;;;;;2.90;2.30;;;24.60;99.90;;;;;;4932092;29;20473;-68
2022/07/31 09:17:08;;;;;;;2.33;2.23;;;24.60;99.90;;;;;;4936139;29;20461;-69
2022/07/31 09:19:39;;;;;;;2.20;2.20;;;24.70;99.90;;;;;;4934874;29;20482;-69
2022/07/31 09:22:20;;;;;;;2.93;2.73;;;25.00;99.90;;;;;;4935408;29;20497;-68
2022/07/31 09:24:49;;;;;;;2.40;2.30;;;25.30;99.90;;;;;;4929178;29;20822;-67
2022/07/31 09:27:16;;;;;;;2.43;2.33;;;25.30;99.90;;;;;;4929352;29;20990;-68
2022/07/31 09:29:47;;;;;;;3.37;2.53;;;25.40;99.90;;;;;;4928040;29;20473;-69
2022/07/31 09:32:16;;;;;;;2.30;2.30;;;25.40;99.90;;;;;;4931817;29;20938;-68
2022/07/31 09:34:44;;;;;;;2.67;2.47;;;25.60;99.90;;;;;;4935295;29;20971;-68
2022/07/31 09:37:13;;;;;;;2.37;2.27;;;25.60;99.90;;;;;;4928272;29;20466;-69
2022/07/31 09:39:41;;;;;;;2.60;2.50;;;25.60;99.90;;;;;;4931636;29;20476;-68
2022/07/31 09:42:09;;;;;;;2.63;2.43;;;25.80;99.90;;;;;;4935758;29;20538;-68
2022/07/31 09:44:38;;;;;;;2.60;2.50;;;25.80;99.90;;;;;;4938403;29;20720;-68
2022/07/31 09:47:06;;;;;;;2.50;2.50;;;25.80;99.90;;;;;;4931790;28;20525;-69
2022/07/31 09:49:34;;;;;;;2.77;2.60;;;26.00;99.90;;;;;;4936552;29;20871;-68
2022/07/31 09:52:01;;;;;;;2.40;2.40;;;26.10;99.90;;;;;;4933067;29;20494;-68
2022/07/31 09:54:30;;;;;;;2.43;2.43;;;26.20;99.90;;;;;;4936163;29;20462;-69
2022/07/31 09:56:57;;;;;;;2.30;2.20;;;26.20;99.90;;;;;;4931596;29;20476;-69
2022/07/31 09:59:26;;;;;;;2.40;2.30;;;26.30;99.90;;;;;;4927304;29;20499;-69
2022/07/31 10:01:53;;;;;;;2.00;1.90;;;26.40;99.90;;;;;;4932217;29;21078;-68
2022/07/31 10:04:22;;;;;;;2.33;2.33;;;26.40;99.90;;;;;;4936107;29;20540;-68
2022/07/31 10:06:50;;;;;;;2.30;2.30;;;26.50;99.90;;;;;;4931243;29;21097;-68
2022/07/31 10:09:20;;;;;;;2.90;2.17;;;26.50;99.90;;;;;;4935191;29;20529;-67
2022/07/31 10:11:49;;;;;;;2.23;2.23;;;26.60;99.90;;;;;;4932600;29;20967;-68
2022/07/31 10:14:22;;;;;;;2.30;2.20;;;26.80;98.80;;;;;;4933830;29;20637;-68
2022/07/31 10:16:54;;;;;;;2.90;2.70;;;26.80;99.00;;;;;;4931840;29;20676;-68
2022/07/31 10:19:22;;;;;;;2.63;2.60;;;26.90;98.30;;;;;;4934475;29;20474;-68
2022/07/31 10:21:54;;;;;;;2.40;2.30;;;26.90;97.80;;;;;;4933721;29;20497;-68
2022/07/31 10:24:26;;;;;;;2.10;2.10;;;27.00;98.50;;;;;;4931346;29;20474;-68
2022/07/31 10:26:57;;;;;;;2.33;2.27;;;27.10;98.70;;;;;;4933305;29;20486;-69
2022/07/31 10:29:24;;;;;;;2.83;2.83;;;27.10;97.30;;;;;;4933919;29;20541;-68
2022/07/31 10:31:53;;;;;;;2.60;2.00;;;27.10;97.60;;;;;;4932191;29;20486;-67
2022/07/31 10:34:21;;;;;;;2.37;2.30;;;27.10;97.00;;;;;;4932562;29;20482;-68
2022/07/31 10:36:51;;;;;;;2.20;2.20;;;27.00;96.90;;;;;;4931666;29;20473;-68
2022/07/31 10:39:27;;;;;;;2.80;2.70;;;27.10;96.40;;;;;;4932444;29;20505;-68
2022/07/31 10:42:03;;;;;;;2.63;2.50;;;27.00;96.80;;;;;;4934182;29;20540;-68
2022/07/31 10:44:35;;;;;;;2.50;2.40;;;26.90;96.80;;;;;;4933035;29;20843;-68
2022/07/31 10:47:13;;;;;;;2.50;2.40;;;27.00;97.40;;;;;;4934457;29;20939;-68
2022/07/31 10:49:41;;;;;;;3.30;3.10;;;26.80;97.20;;;;;;4929862;29;20474;-68
2022/07/31 10:52:08;;;;;;;3.80;2.23;;;26.70;97.50;;;;;;4934568;29;20493;-68
2022/07/31 10:54:40;;;;;;;4.93;2.77;;;26.80;97.80;;;;;;4930038;29;20470;-68
2022/07/31 10:57:07;;;;;;;2.33;2.23;;;26.90;97.50;;;;;;4936130;29;20473;-69
2022/07/31 10:59:33;;;;;;;2.50;2.40;;;26.90;97.10;;;;;;4935156;29;20481;-68
2022/07/31 11:02:01;;;;;;;2.50;2.40;;;26.70;96.90;;;;;;4936448;29;20564;-68
2022/07/31 11:04:31;;;;;;;2.40;2.40;;;26.90;97.40;;;;;;4945586;29;20502;-68
2022/07/31 11:06:59;;;;;;;3.27;3.00;;;26.80;97.30;;;;;;4947173;29;20518;-68
2022/07/31 11:09:27;;;;;;;2.67;2.57;;;26.80;96.90;;;;;;4933961;29;20579;-69
2022/07/31 11:11:55;;;;;;;3.27;3.07;;;27.00;97.00;;;;;;4931136;29;20850;-68
2022/07/31 11:14:32;;;;;;;2.23;2.23;;;26.90;97.10;;;;;;4930893;29;20604;-67
2022/07/31 11:16:59;;;;;;;2.77;2.60;;;27.00;97.50;;;;;;4934239;29;20465;-68
2022/07/31 11:19:36;;;;;;;3.77;3.43;;;27.00;97.10;;;;;;4933340;29;20588;-68
2022/07/31 11:22:11;;;;;;;3.63;3.30;;;27.10;97.00;;;;;;4926132;29;20495;-69
2022/07/31 11:24:38;;;;;;;3.73;3.40;;;27.10;96.50;;;;;;4952297;29;20457;-67
2022/07/31 11:27:06;;;;;;;2.90;2.70;;;27.30;96.70;;;;;;4954368;29;20482;-66
2022/07/31 11:29:34;;;;;;;3.17;3.08;;;27.60;96.30;;;;;;4949211;29;20464;-66
2022/07/31 11:32:13;;;;;;;4.67;2.80;;;27.70;96.30;;;;;;4954880;29;20231;-67
2022/07/31 11:34:47;;;;;;;3.77;3.57;;;27.90;95.80;;;;;;4948077;29;20484;-67
2022/07/31 11:37:19;;;;;;;3.10;3.00;;;28.00;95.50;;;;;;4953999;29;20454;-66
2022/07/31 11:39:46;;;;;;;3.10;3.00;;;28.00;95.40;;;;;;4930407;29;20778;-67
2022/07/31 11:42:12;;;;;;;4.80;3.90;;;28.20;95.30;;;;;;4933197;29;20504;-67
2022/07/31 11:44:39;;;;;;;3.50;3.30;;;28.20;94.80;;;;;;4926157;29;20469;-68
2022/07/31 11:47:06;;;;;;;3.63;3.43;;;28.20;95.30;;;;;;4934590;29;20482;-68
2022/07/31 11:49:35;;;;;;;3.57;3.57;;;28.20;95.20;;;;;;4934689;29;20473;-68
2022/07/31 11:52:02;;;;;;;4.20;4.00;;;28.30;94.80;;;;;;4933090;29;20541;-68
2022/07/31 11:54:30;;;;;;;3.23;3.13;;;28.20;94.40;;;;;;4946229;29;20466;-68
2022/07/31 11:56:57;;;;;;;3.10;3.00;;;28.20;94.70;;;;;;4935846;29;20469;-71
2022/07/31 11:59:34;;;;;;;3.40;3.20;;;28.30;94.70;;;;;;4935928;29;20973;-69
2022/07/31 12:02:06;;;;;;;3.57;3.47;;;28.40;94.20;;;;;;4935602;29;21074;-68
2022/07/31 12:04:35;;;;;;;3.30;3.10;;;28.40;94.20;;;;;;4935784;29;20801;-67
2022/07/31 12:07:02;;;;;;;3.80;3.50;;;28.50;93.70;;;;;;4935367;29;20509;-68
2022/07/31 12:09:30;;;;;;;3.20;3.10;;;28.40;93.50;;;;;;4933779;29;20935;-68
2022/07/31 12:11:58;;;;;;;2.97;2.97;;;28.40;94.00;;;;;;4933776;29;21230;-69
2022/07/31 12:14:29;;;;;;;3.40;3.20;;;28.40;94.10;;;;;;4932640;29;20473;-68
2022/07/31 12:16:59;;;;;;;3.63;3.40;;;28.50;94.00;;;;;;4933210;29;20466;-68
2022/07/31 12:19:27;;;;;;;3.53;3.33;;;28.50;93.70;;;;;;4933624;29;20619;-68
2022/07/31 12:21:54;;;;;;;3.00;3.00;;;28.60;94.30;;;;;;4933430;29;20573;-67
2022/07/31 12:24:22;;;;;;;2.83;2.80;;;28.60;93.40;;;;;;4932633;29;21033;-68
2022/07/31 12:26:53;;;;;;;3.00;3.00;;;28.50;93.10;;;;;;4934517;29;20488;-68
2022/07/31 12:29:29;;;;;;;3.40;3.30;;;28.50;93.00;;;;;;4933865;29;20466;-68
2022/07/31 12:31:57;;;;;;;3.23;3.13;;;28.40;92.90;;;;;;4934251;29;20489;-67
2022/07/31 12:34:28;;;;;;;3.70;3.20;;;28.20;92.80;;;;;;4932568;29;20505;-67
2022/07/31 12:37:00;;;;;;;3.53;3.33;;;28.10;93.00;;;;;;4933133;29;20557;-68
2022/07/31 12:39:27;;;;;;;2.87;2.77;;;28.00;93.20;;;;;;4933436;29;20967;-69
2022/07/31 12:41:55;;;;;;;3.77;2.90;;;28.00;92.80;;;;;;4930660;29;20497;-71
2022/07/31 12:44:21;;;;;;;2.53;2.40;;;28.10;93.60;;;;;;4931184;29;20479;-68
2022/07/31 12:46:51;;;;;;;2.90;2.80;;;28.00;93.50;;;;;;4933593;29;20496;-68
2022/07/31 12:49:18;;;;;;;3.60;3.40;;;27.90;92.90;;;;;;4932215;29;20477;-68
2022/07/31 12:51:45;;;;;;;3.30;3.20;;;27.80;92.70;;;;;;4931901;29;20543;-68
2022/07/31 12:54:12;;;;;;;3.47;3.37;;;27.70;93.10;;;;;;4929696;29;20537;-68
2022/07/31 12:56:40;;;;;;;2.83;2.83;;;27.70;92.90;;;;;;4931883;29;20904;-68
2022/07/31 12:59:09;;;;;;;3.03;3.03;;;27.60;93.10;;;;;;4932278;29;20955;-68
2022/07/31 13:01:36;;;;;;;2.90;2.80;;;27.70;93.50;;;;;;4931052;29;20566;-68
2022/07/31 13:04:04;;;;;;;3.17;2.87;;;27.70;93.60;;;;;;4928761;29;20558;-68
2022/07/31 13:06:31;;;;;;;3.10;3.00;;;27.70;93.20;;;;;;4931851;29;21494;-68
2022/07/31 13:08:58;;;;;;;2.63;2.63;;;27.70;93.10;;;;;;4928135;29;20474;-68
2022/07/31 13:11:27;;;;;;;2.60;2.60;;;27.70;93.30;;;;;;4931370;29;20549;-69
2022/07/31 13:13:55;;;;;;;2.50;2.50;;;27.70;93.20;;;;;;4931328;29;20584;-69
2022/07/31 13:16:23;;;;;;;2.90;2.80;;;27.80;93.40;;;;;;4931708;29;20994;-69
2022/07/31 13:18:50;;;;;;;3.13;2.93;;;27.80;93.20;;;;;;4929810;29;20553;-69
2022/07/31 13:21:17;;;;;;;2.90;2.70;;;27.90;93.40;;;;;;4932604;29;20483;-69
2022/07/31 13:23:43;;;;;;;3.07;2.97;;;28.00;93.40;;;;;;4931243;29;20577;-69
2022/07/31 13:26:10;;;;;;;5.60;3.53;;;28.00;93.70;;;;;;4928010;29;20482;-69
2022/07/31 13:28:37;;;;;;;2.83;2.73;;;28.10;93.70;;;;;;4931057;29;20486;-69
2022/07/31 13:31:03;;;;;;;2.80;2.80;;;28.10;93.90;;;;;;4930150;29;20498;-69
2022/07/31 13:33:32;;;;;;;2.87;2.80;;;28.00;93.70;;;;;;4933385;29;20468;-69
2022/07/31 13:35:58;;;;;;;3.20;3.10;;;28.00;93.90;;;;;;4926434;29;20501;-69
2022/07/31 13:38:25;;;;;;;3.50;3.30;;;28.00;94.10;;;;;;4929972;29;20506;-70
2022/07/31 13:43:36;;;;;;;3.73;3.73;;;28.00;93.80;;;;;;4930995;29;20603;-69
2022/07/31 13:46:03;;;;;;;3.80;3.70;;;27.90;93.80;;;;;;4932132;29;20469;-69
2022/07/31 13:48:32;;;;;;;3.83;3.67;;;27.90;94.00;;;;;;4930368;29;20553;-69
2022/07/31 13:50:58;;;;;;;3.17;3.07;;;27.80;93.90;;;;;;4932033;29;20990;-69
2022/07/31 13:53:25;;;;;;;3.13;3.03;;;27.60;94.10;;;;;;4930945;29;20478;-68
2022/07/31 13:55:53;;;;;;;3.60;3.50;;;27.60;94.30;;;;;;4932521;29;20493;-69
2022/07/31 13:58:19;;;;;;;3.80;3.60;;;27.50;94.30;;;;;;4930825;29;20473;-69
2022/07/31 14:00:47;;;;;;;5.67;3.53;;;27.40;94.80;;;;;;4933734;29;20991;-69
2022/07/31 14:03:13;;;;;;;3.50;3.30;;;27.40;95.20;;;;;;4934548;29;20528;-69
2022/07/31 14:05:41;;;;;;;3.67;3.57;;;27.40;95.40;;;;;;4934117;29;20488;-69
2022/07/31 14:08:08;;;;;;;4.10;3.80;;;27.40;95.70;;;;;;4932203;29;20501;-68
2022/07/31 14:10:35;;;;;;;4.20;4.07;;;27.30;95.80;;;;;;4935636;29;20635;-69
2022/07/31 14:13:02;;;;;;;3.50;3.40;;;27.30;95.50;;;;;;4934287;29;20547;-69
2022/07/31 14:15:28;;;;;;;4.03;3.83;;;27.20;95.60;;;;;;4931115;29;20474;-69
2022/07/31 14:17:55;;;;;;;3.50;3.40;;;27.20;95.80;;;;;;4931207;29;20481;-69
2022/07/31 14:20:22;;;;;;;3.73;3.70;;;27.20;96.10;;;;;;4935097;29;20832;-68
2022/07/31 14:22:50;;;;;;;3.77;3.67;;;27.20;95.80;;;;;;4934675;29;20557;-68
2022/07/31 14:25:17;;;;;;;3.70;3.40;;;27.20;96.10;;;;;;4932554;29;20574;-69
2022/07/31 14:27:44;;;;;;;4.00;3.80;;;27.20;96.20;;;;;;4931552;29;20486;-70
2022/07/31 14:30:14;;;;;;;3.37;3.30;;;27.20;96.70;;;;;;4934637;29;20560;-67
2022/07/31 14:32:41;;;;;;;3.67;3.57;;;27.20;95.80;;;;;;4933522;29;20501;-69
2022/07/31 14:35:09;;;;;;;3.63;3.53;;;27.20;96.10;;;;;;4932482;29;20880;-68
2022/07/31 14:37:36;;;;;;;4.23;4.03;;;27.20;96.10;;;;;;4932959;29;20470;-69
2022/07/31 14:40:05;;;;;;;3.80;3.70;;;27.20;96.50;;;;;;4932220;29;20478;-69
2022/07/31 14:42:32;;;;;;;4.07;3.87;;;27.20;96.30;;;;;;4933592;29;20512;-68
2022/07/31 14:45:01;;;;;;;4.10;3.77;;;27.30;96.00;;;;;;4933017;29;20474;-68
2022/07/31 14:47:28;;;;;;;3.83;3.50;;;27.20;95.80;;;;;;4933319;29;20505;-69
2022/07/31 14:49:55;;;;;;;3.80;3.50;;;27.20;96.20;;;;;;4930936;29;20474;-68
2022/07/31 14:52:21;;;;;;;4.23;4.10;;;27.10;96.30;;;;;;4931275;29;20489;-69
2022/07/31 14:54:48;;;;;;;3.90;3.67;;;27.00;98.40;;;;;;4933552;29;20475;-69
2022/07/31 14:57:17;;;;;;;4.50;4.00;;;26.90;99.30;;;;;;4931071;29;20506;-69
2022/07/31 14:59:44;;;;;;;4.03;3.93;;;26.80;99.90;;;;;;4933956;29;20576;-68
2022/07/31 15:02:11;;;;;;;4.40;4.10;;;26.70;99.90;;;;;;4930518;29;20572;-69
2022/07/31 15:04:38;;;;;;;4.90;4.50;;;26.40;99.90;;;;;;4930738;29;20478;-69
2022/07/31 15:07:05;;;;;;;4.73;4.60;;;26.20;99.90;;;;;;4931201;29;20509;-69
2022/07/31 15:09:32;;;;;;;5.00;4.70;;;25.80;99.90;;;;;;4931545;29;21119;-68
2022/07/31 15:11:59;;;;;;;5.40;5.10;;;25.50;99.90;;;;;;4928813;29;21087;-69
2022/07/31 15:14:27;;;;;;;5.37;5.17;;;25.10;99.90;;;;;;4932588;29;20911;-69
2022/07/31 15:16:53;;;;;;;5.43;5.23;;;24.90;99.90;;;;;;4931753;29;20977;-68
2022/07/31 15:19:20;;;;;;;5.50;5.20;;;24.70;99.90;;;;;;4933132;29;20941;-68
2022/07/31 15:21:47;;;;;;;6.40;5.97;;;24.50;99.90;;;;;;4931877;29;20519;-69
2022/07/31 15:24:13;;;;;;;5.87;5.60;;;24.50;99.90;;;;;;4928686;29;20475;-69
2022/07/31 15:26:41;;;;;;;5.47;5.27;;;24.30;99.90;;;;;;4923128;29;20480;-68
2022/07/31 15:29:07;;;;;;;6.03;5.70;;;24.10;99.90;;;;;;4932837;29;20495;-69
2022/07/31 15:31:36;;;;;;;5.53;5.30;;;24.10;99.90;;;;;;4932154;29;20499;-69
2022/07/31 15:34:03;;;;;;;6.30;6.10;;;23.90;99.90;;;;;;4933054;29;20481;-69
2022/07/31 15:36:29;;;;;;;7.93;6.23;;;23.80;99.90;;;;;;4931392;29;20658;-69
2022/07/31 15:38:56;;;;;;;6.30;6.10;;;23.70;99.90;;;;;;4933633;29;20534;-68
2022/07/31 15:41:23;;;;;;;7.23;6.83;;;23.70;99.90;;;;;;4934067;29;20497;-70
2022/07/31 15:43:50;;;;;;;7.33;6.63;;;23.60;99.90;;;;;;4931439;29;20495;-68
2022/07/31 15:46:17;;;;;;;8.07;7.33;;;23.50;99.90;;;;;;4933136;29;20478;-68
2022/07/31 15:48:45;;;;;;;7.40;7.00;;;23.50;99.90;;;;;;4931888;29;20492;-68
2022/07/31 15:51:11;;;;;;;9.57;8.70;;;23.40;99.90;;;;;;4927120;29;20566;-69
2022/07/31 15:53:38;;;;;;;9.70;9.00;;;23.30;99.90;;;;;;4931849;29;20499;-69
2022/07/31 15:56:05;;;;;;;10.10;9.50;;;23.20;99.90;;;;;;4932018;29;20472;-67
2022/07/31 15:58:32;;;;;;;9.40;8.70;;;23.00;99.90;;;;;;4933473;29;20467;-68
2022/07/31 16:00:59;;;;;;;9.37;8.57;;;22.80;99.90;;;;;;4929434;29;20510;-68
2022/07/31 16:03:26;;;;;;;9.53;8.97;;;22.70;99.90;;;;;;4932838;29;20474;-68
2022/07/31 16:05:54;;;;;;;10.17;9.50;;;22.70;99.90;;;;;;4930584;29;20852;-68
2022/07/31 16:08:21;;;;;;;10.37;9.70;;;22.60;99.90;;;;;;4917023;29;20890;-67
2022/07/31 16:10:47;;;;;;;10.60;10.00;;;22.50;99.90;;;;;;4927954;29;20502;-67
2022/07/31 16:13:14;;;;;;;11.00;10.20;;;22.50;99.90;;;;;;4925453;29;20550;-67
2022/07/31 16:15:41;;;;;;;8.80;8.30;;;22.40;99.90;;;;;;4925391;29;20828;-67
2022/07/31 16:18:07;;;;;;;10.90;10.10;;;22.20;99.90;;;;;;4930062;29;20474;-68
2022/07/31 16:20:34;;;;;;;10.00;9.20;;;22.20;99.90;;;;;;4926501;29;20474;-67
2022/07/31 16:23:02;;;;;;;11.13;10.40;;;22.00;99.90;;;;;;4927237;29;20474;-69
2022/07/31 16:25:30;;;;;;;10.60;10.10;;;21.80;99.90;;;;;;4929227;29;20527;-70
2022/07/31 16:27:57;;;;;;;12.03;11.23;;;21.70;99.90;;;;;;4929587;29;20539;-67
2022/07/31 16:30:26;;;;;;;11.53;10.73;;;21.60;99.90;;;;;;4926764;29;20474;-69
2022/07/31 16:32:53;;;;;;;11.47;10.83;;;21.60;99.90;;;;;;4926726;29;20841;-68
2022/07/31 16:35:19;;;;;;;11.90;11.10;;;21.60;99.90;;;;;;4926935;29;20481;-67
2022/07/31 16:37:46;;;;;;;11.80;10.90;;;21.60;99.90;;;;;;4929252;29;20501;-67
2022/07/31 16:40:14;;;;;;;11.23;10.50;;;21.70;99.90;;;;;;4929640;29;20787;-68
2022/07/31 16:42:41;;;;;;;13.00;12.10;;;21.60;99.90;;;;;;4928296;29;20496;-68
2022/07/31 16:45:09;;;;;;;12.00;11.30;;;21.60;99.90;;;;;;4928771;29;20917;-69
2022/07/31 16:47:36;;;;;;;13.80;13.00;;;21.60;99.90;;;;;;4926567;29;20478;-68
2022/07/31 16:50:03;;;;;;;13.27;12.37;;;21.60;99.90;;;;;;4925339;29;20498;-68
2022/07/31 16:52:30;;;;;;;14.87;13.70;;;21.50;99.90;;;;;;4924337;29;20504;-68
2022/07/31 16:54:57;;;;;;;13.97;12.93;;;21.50;99.90;;;;;;4943082;23;20507;-68